sensor_id;sensor_type;location;lat;lon;timestamp;P1;durP1;ratioP1;P2;durP2;ratioP2
22378;SDS011;11357;49.990;7.370;2023-03-21T00:02:03;9.80;;;5.93;;
22378;SDS011;11357;49.990;7.370;2023-03-21T00:04:29;19.20;;;6.23;;
22378;SDS011;11357;49.990;7.370;2023-03-21T00:06:55;11.30;;;5.63;;
22378;SDS011;11357;49.990;7.370;2023-03-21T00:09:21;16.37;;;5.57;;
22378;SDS011;11357;49.990;7.370;2023-03-21T00:11:47;15.73;;;5.83;;
22378;SDS011;11357;49.990;7.370;2023-03-21T00:14:13;12.53;;;5.77;;
22378;SDS011;11357;49.990;7.370;2023-03-21T00:16:42;14.27;;;5.07;;
22378;SDS011;11357;49.990;7.370;2023-03-21T00:19:09;11.57;;;5.30;;
22378;SDS011;11357;49.990;7.370;2023-03-21T00:21:36;12.07;;;6.10;;
22378;SDS011;11357;49.990;7.370;2023-03-21T00:24:02;12.23;;;5.73;;
22378;SDS011;11357;49.990;7.370;2023-03-21T00:26:29;12.43;;;5.50;;
22378;SDS011;11357;49.990;7.370;2023-03-21T00:28:55;12.83;;;5.87;;
22378;SDS011;11357;49.990;7.370;2023-03-21T00:31:21;15.23;;;6.00;;
22378;SDS011;11357;49.990;7.370;2023-03-21T00:33:47;13.87;;;5.73;;
22378;SDS011;11357;49.990;7.370;2023-03-21T00:36:13;12.10;;;6.43;;
22378;SDS011;11357;49.990;7.370;2023-03-21T00:38:39;14.07;;;5.43;;
22378;SDS011;11357;49.990;7.370;2023-03-21T00:41:07;9.37;;;5.77;;
22378;SDS011;11357;49.990;7.370;2023-03-21T00:43:34;18.07;;;6.50;;
22378;SDS011;11357;49.990;7.370;2023-03-21T00:46:00;8.97;;;5.63;;
22378;SDS011;11357;49.990;7.370;2023-03-21T00:48:27;9.60;;;5.60;;
22378;SDS011;11357;49.990;7.370;2023-03-21T00:50:53;15.57;;;5.63;;
22378;SDS011;11357;49.990;7.370;2023-03-21T00:53:21;10.03;;;5.73;;
22378;SDS011;11357;49.990;7.370;2023-03-21T00:55:47;10.90;;;5.63;;
22378;SDS011;11357;49.990;7.370;2023-03-21T00:58:14;16.37;;;6.27;;
22378;SDS011;11357;49.990;7.370;2023-03-21T01:00:40;13.07;;;5.73;;
22378;SDS011;11357;49.990;7.370;2023-03-21T01:03:07;13.23;;;5.77;;
22378;SDS011;11357;49.990;7.370;2023-03-21T01:05:45;15.57;;;6.63;;
22378;SDS011;11357;49.990;7.370;2023-03-21T01:08:32;13.37;;;5.80;;
22378;SDS011;11357;49.990;7.370;2023-03-21T01:11:03;16.93;;;5.73;;
22378;SDS011;11357;49.990;7.370;2023-03-21T01:13:32;13.60;;;6.47;;
22378;SDS011;11357;49.990;7.370;2023-03-21T01:15:58;15.77;;;6.67;;
22378;SDS011;11357;49.990;7.370;2023-03-21T01:18:25;15.30;;;7.03;;
22378;SDS011;11357;49.990;7.370;2023-03-21T01:20:54;12.30;;;5.77;;
22378;SDS011;11357;49.990;7.370;2023-03-21T01:23:21;14.23;;;6.37;;
22378;SDS011;11357;49.990;7.370;2023-03-21T01:25:47;15.83;;;6.33;;
22378;SDS011;11357;49.990;7.370;2023-03-21T01:28:14;14.80;;;6.00;;
22378;SDS011;11357;49.990;7.370;2023-03-21T01:30:48;18.53;;;6.23;;
22378;SDS011;11357;49.990;7.370;2023-03-21T01:33:16;16.27;;;6.10;;
22378;SDS011;11357;49.990;7.370;2023-03-21T01:35:42;12.93;;;6.30;;
22378;SDS011;11357;49.990;7.370;2023-03-21T01:38:09;13.90;;;6.20;;
22378;SDS011;11357;49.990;7.370;2023-03-21T01:40:35;13.53;;;6.43;;
22378;SDS011;11357;49.990;7.370;2023-03-21T01:43:02;13.10;;;6.33;;
22378;SDS011;11357;49.990;7.370;2023-03-21T01:48:32;13.30;;;7.10;;
22378;SDS011;11357;49.990;7.370;2023-03-21T01:51:00;13.47;;;6.60;;
22378;SDS011;11357;49.990;7.370;2023-03-21T01:53:27;14.43;;;7.03;;
22378;SDS011;11357;49.990;7.370;2023-03-21T01:56:00;16.00;;;6.97;;
22378;SDS011;11357;49.990;7.370;2023-03-21T01:58:31;21.13;;;7.63;;
22378;SDS011;11357;49.990;7.370;2023-03-21T02:00:57;19.10;;;7.73;;
22378;SDS011;11357;49.990;7.370;2023-03-21T02:03:24;15.57;;;6.73;;
22378;SDS011;11357;49.990;7.370;2023-03-21T02:06:00;18.90;;;7.37;;
22378;SDS011;11357;49.990;7.370;2023-03-21T02:08:30;17.83;;;7.63;;
22378;SDS011;11357;49.990;7.370;2023-03-21T02:10:57;14.40;;;7.50;;
22378;SDS011;11357;49.990;7.370;2023-03-21T02:13:23;18.30;;;7.03;;
22378;SDS011;11357;49.990;7.370;2023-03-21T02:21:33;13.80;;;6.57;;
22378;SDS011;11357;49.990;7.370;2023-03-21T02:27:22;12.60;;;7.40;;
22378;SDS011;11357;49.990;7.370;2023-03-21T02:33:03;21.17;;;7.47;;
22378;SDS011;11357;49.990;7.370;2023-03-21T02:41:15;20.67;;;6.67;;
22378;SDS011;11357;49.990;7.370;2023-03-21T02:44:05;15.27;;;7.37;;
22378;SDS011;11357;49.990;7.370;2023-03-21T02:46:41;17.00;;;7.70;;
22378;SDS011;11357;49.990;7.370;2023-03-21T02:49:21;18.47;;;8.73;;
22378;SDS011;11357;49.990;7.370;2023-03-21T02:51:51;17.07;;;8.00;;
22378;SDS011;11357;49.990;7.370;2023-03-21T02:54:20;15.73;;;7.30;;
22378;SDS011;11357;49.990;7.370;2023-03-21T02:56:48;13.20;;;6.97;;
22378;SDS011;11357;49.990;7.370;2023-03-21T02:59:16;14.50;;;7.03;;
22378;SDS011;11357;49.990;7.370;2023-03-21T03:01:43;19.57;;;6.60;;
22378;SDS011;11357;49.990;7.370;2023-03-21T03:04:42;18.83;;;7.03;;
22378;SDS011;11357;49.990;7.370;2023-03-21T03:09:38;15.80;;;6.33;;
22378;SDS011;11357;49.990;7.370;2023-03-21T03:17:47;13.70;;;5.87;;
22378;SDS011;11357;49.990;7.370;2023-03-21T03:20:30;16.03;;;6.00;;
22378;SDS011;11357;49.990;7.370;2023-03-21T03:23:12;8.60;;;5.43;;
22378;SDS011;11357;49.990;7.370;2023-03-21T03:25:53;16.97;;;6.60;;
22378;SDS011;11357;49.990;7.370;2023-03-21T03:28:37;13.43;;;6.20;;
22378;SDS011;11357;49.990;7.370;2023-03-21T03:31:05;17.83;;;6.10;;
22378;SDS011;11357;49.990;7.370;2023-03-21T03:33:33;15.07;;;5.77;;
22378;SDS011;11357;49.990;7.370;2023-03-21T03:36:02;12.13;;;5.60;;
22378;SDS011;11357;49.990;7.370;2023-03-21T03:38:29;15.27;;;5.70;;
22378;SDS011;11357;49.990;7.370;2023-03-21T03:40:57;13.47;;;5.53;;
22378;SDS011;11357;49.990;7.370;2023-03-21T03:43:32;12.30;;;5.30;;
22378;SDS011;11357;49.990;7.370;2023-03-21T03:46:07;9.60;;;4.83;;
22378;SDS011;11357;49.990;7.370;2023-03-21T03:48:40;10.10;;;5.40;;
22378;SDS011;11357;49.990;7.370;2023-03-21T03:51:20;16.93;;;7.13;;
22378;SDS011;11357;49.990;7.370;2023-03-21T03:53:51;11.53;;;6.07;;
22378;SDS011;11357;49.990;7.370;2023-03-21T03:56:24;12.60;;;5.63;;
22378;SDS011;11357;49.990;7.370;2023-03-21T03:58:51;13.87;;;5.40;;
22378;SDS011;11357;49.990;7.370;2023-03-21T04:01:17;10.77;;;5.77;;
22378;SDS011;11357;49.990;7.370;2023-03-21T04:03:43;10.70;;;5.50;;
22378;SDS011;11357;49.990;7.370;2023-03-21T04:06:12;11.50;;;6.03;;
22378;SDS011;11357;49.990;7.370;2023-03-21T04:08:38;19.03;;;6.97;;
22378;SDS011;11357;49.990;7.370;2023-03-21T04:11:04;19.70;;;7.47;;
22378;SDS011;11357;49.990;7.370;2023-03-21T04:13:30;14.13;;;6.33;;
22378;SDS011;11357;49.990;7.370;2023-03-21T04:15:55;14.10;;;6.50;;
22378;SDS011;11357;49.990;7.370;2023-03-21T04:18:21;17.73;;;6.70;;
22378;SDS011;11357;49.990;7.370;2023-03-21T04:20:47;14.70;;;6.47;;
22378;SDS011;11357;49.990;7.370;2023-03-21T04:23:15;16.57;;;6.13;;
22378;SDS011;11357;49.990;7.370;2023-03-21T04:25:43;22.33;;;5.73;;
22378;SDS011;11357;49.990;7.370;2023-03-21T04:28:09;18.63;;;5.93;;
22378;SDS011;11357;49.990;7.370;2023-03-21T04:30:35;14.20;;;6.30;;
22378;SDS011;11357;49.990;7.370;2023-03-21T04:33:01;10.57;;;5.90;;
22378;SDS011;11357;49.990;7.370;2023-03-21T04:35:27;15.33;;;5.23;;
22378;SDS011;11357;49.990;7.370;2023-03-21T04:37:53;14.30;;;5.60;;
22378;SDS011;11357;49.990;7.370;2023-03-21T04:40:19;14.37;;;5.40;;
22378;SDS011;11357;49.990;7.370;2023-03-21T04:42:45;12.10;;;5.83;;
22378;SDS011;11357;49.990;7.370;2023-03-21T04:45:12;14.30;;;5.83;;
22378;SDS011;11357;49.990;7.370;2023-03-21T04:47:38;13.17;;;5.57;;
22378;SDS011;11357;49.990;7.370;2023-03-21T04:50:05;10.30;;;5.50;;
22378;SDS011;11357;49.990;7.370;2023-03-21T04:52:31;17.33;;;6.50;;
22378;SDS011;11357;49.990;7.370;2023-03-21T04:54:56;12.83;;;6.30;;
22378;SDS011;11357;49.990;7.370;2023-03-21T04:57:22;16.37;;;6.40;;
22378;SDS011;11357;49.990;7.370;2023-03-21T04:59:48;15.77;;;6.17;;
22378;SDS011;11357;49.990;7.370;2023-03-21T05:02:13;16.00;;;7.00;;
22378;SDS011;11357;49.990;7.370;2023-03-21T05:04:39;15.53;;;6.03;;
22378;SDS011;11357;49.990;7.370;2023-03-21T05:07:05;12.83;;;5.43;;
22378;SDS011;11357;49.990;7.370;2023-03-21T05:09:31;13.70;;;5.87;;
22378;SDS011;11357;49.990;7.370;2023-03-21T05:11:57;18.67;;;6.10;;
22378;SDS011;11357;49.990;7.370;2023-03-21T05:14:24;13.17;;;5.97;;
22378;SDS011;11357;49.990;7.370;2023-03-21T05:16:50;14.50;;;6.10;;
22378;SDS011;11357;49.990;7.370;2023-03-21T05:19:21;11.83;;;5.73;;
22378;SDS011;11357;49.990;7.370;2023-03-21T05:21:59;17.90;;;6.13;;
22378;SDS011;11357;49.990;7.370;2023-03-21T05:24:29;14.80;;;6.67;;
22378;SDS011;11357;49.990;7.370;2023-03-21T05:26:56;11.03;;;6.20;;
22378;SDS011;11357;49.990;7.370;2023-03-21T05:29:26;14.07;;;6.03;;
22378;SDS011;11357;49.990;7.370;2023-03-21T05:31:53;13.63;;;6.87;;
22378;SDS011;11357;49.990;7.370;2023-03-21T05:34:19;15.73;;;6.40;;
22378;SDS011;11357;49.990;7.370;2023-03-21T05:36:45;13.67;;;6.80;;
22378;SDS011;11357;49.990;7.370;2023-03-21T05:39:11;12.47;;;6.50;;
22378;SDS011;11357;49.990;7.370;2023-03-21T05:41:36;12.20;;;7.13;;
22378;SDS011;11357;49.990;7.370;2023-03-21T05:44:02;13.47;;;6.73;;
22378;SDS011;11357;49.990;7.370;2023-03-21T05:46:28;11.40;;;6.10;;
22378;SDS011;11357;49.990;7.370;2023-03-21T05:48:53;17.37;;;10.10;;
22378;SDS011;11357;49.990;7.370;2023-03-21T05:51:19;18.47;;;7.63;;
22378;SDS011;11357;49.990;7.370;2023-03-21T05:53:44;11.27;;;6.57;;
22378;SDS011;11357;49.990;7.370;2023-03-21T05:56:10;13.67;;;6.43;;
22378;SDS011;11357;49.990;7.370;2023-03-21T05:58:36;12.27;;;6.30;;
22378;SDS011;11357;49.990;7.370;2023-03-21T06:01:01;14.03;;;6.03;;
22378;SDS011;11357;49.990;7.370;2023-03-21T06:03:27;16.77;;;6.23;;
22378;SDS011;11357;49.990;7.370;2023-03-21T06:05:53;16.03;;;6.27;;
22378;SDS011;11357;49.990;7.370;2023-03-21T06:08:18;11.60;;;5.73;;
22378;SDS011;11357;49.990;7.370;2023-03-21T06:10:44;11.40;;;5.50;;
22378;SDS011;11357;49.990;7.370;2023-03-21T06:13:09;9.23;;;5.77;;
22378;SDS011;11357;49.990;7.370;2023-03-21T06:15:35;12.73;;;6.23;;
22378;SDS011;11357;49.990;7.370;2023-03-21T06:18:01;13.10;;;6.20;;
22378;SDS011;11357;49.990;7.370;2023-03-21T06:20:26;19.93;;;6.30;;
22378;SDS011;11357;49.990;7.370;2023-03-21T06:22:52;13.40;;;5.83;;
22378;SDS011;11357;49.990;7.370;2023-03-21T06:25:18;13.20;;;5.93;;
22378;SDS011;11357;49.990;7.370;2023-03-21T06:27:43;12.30;;;5.93;;
22378;SDS011;11357;49.990;7.370;2023-03-21T06:30:09;10.23;;;6.23;;
22378;SDS011;11357;49.990;7.370;2023-03-21T06:32:35;12.47;;;6.10;;
22378;SDS011;11357;49.990;7.370;2023-03-21T06:35:01;14.40;;;6.03;;
22378;SDS011;11357;49.990;7.370;2023-03-21T06:37:27;14.90;;;6.70;;
22378;SDS011;11357;49.990;7.370;2023-03-21T06:39:52;12.63;;;5.93;;
22378;SDS011;11357;49.990;7.370;2023-03-21T06:42:18;14.23;;;6.30;;
22378;SDS011;11357;49.990;7.370;2023-03-21T06:44:44;11.67;;;6.20;;
22378;SDS011;11357;49.990;7.370;2023-03-21T06:47:10;19.43;;;6.40;;
22378;SDS011;11357;49.990;7.370;2023-03-21T06:49:35;11.67;;;6.63;;
22378;SDS011;11357;49.990;7.370;2023-03-21T06:52:01;17.33;;;6.83;;
22378;SDS011;11357;49.990;7.370;2023-03-21T06:54:27;13.30;;;6.33;;
22378;SDS011;11357;49.990;7.370;2023-03-21T06:56:53;8.67;;;6.33;;
22378;SDS011;11357;49.990;7.370;2023-03-21T06:59:19;12.37;;;5.97;;
22378;SDS011;11357;49.990;7.370;2023-03-21T07:01:45;14.10;;;6.60;;
22378;SDS011;11357;49.990;7.370;2023-03-21T07:04:11;13.43;;;6.90;;
22378;SDS011;11357;49.990;7.370;2023-03-21T07:06:37;13.30;;;6.10;;
22378;SDS011;11357;49.990;7.370;2023-03-21T07:09:03;15.27;;;5.87;;
22378;SDS011;11357;49.990;7.370;2023-03-21T07:11:30;13.63;;;6.13;;
22378;SDS011;11357;49.990;7.370;2023-03-21T07:13:56;11.67;;;5.90;;
22378;SDS011;11357;49.990;7.370;2023-03-21T07:16:22;11.73;;;5.60;;
22378;SDS011;11357;49.990;7.370;2023-03-21T07:18:48;17.20;;;6.43;;
22378;SDS011;11357;49.990;7.370;2023-03-21T07:21:15;16.60;;;5.93;;
22378;SDS011;11357;49.990;7.370;2023-03-21T07:23:41;9.53;;;5.97;;
22378;SDS011;11357;49.990;7.370;2023-03-21T07:26:07;18.87;;;5.40;;
22378;SDS011;11357;49.990;7.370;2023-03-21T07:28:32;16.90;;;5.87;;
22378;SDS011;11357;49.990;7.370;2023-03-21T07:31:00;9.77;;;4.93;;
22378;SDS011;11357;49.990;7.370;2023-03-21T07:33:28;12.73;;;5.00;;
22378;SDS011;11357;49.990;7.370;2023-03-21T07:35:55;12.63;;;6.70;;
22378;SDS011;11357;49.990;7.370;2023-03-21T07:38:22;19.97;;;9.30;;
22378;SDS011;11357;49.990;7.370;2023-03-21T07:40:49;20.77;;;9.30;;
22378;SDS011;11357;49.990;7.370;2023-03-21T07:43:15;16.80;;;8.13;;
22378;SDS011;11357;49.990;7.370;2023-03-21T07:45:41;18.10;;;7.80;;
22378;SDS011;11357;49.990;7.370;2023-03-21T07:48:08;22.23;;;10.70;;
22378;SDS011;11357;49.990;7.370;2023-03-21T07:50:34;17.63;;;8.80;;
22378;SDS011;11357;49.990;7.370;2023-03-21T07:53:00;17.60;;;6.63;;
22378;SDS011;11357;49.990;7.370;2023-03-21T07:55:26;13.23;;;6.57;;
22378;SDS011;11357;49.990;7.370;2023-03-21T07:57:52;13.93;;;7.33;;
22378;SDS011;11357;49.990;7.370;2023-03-21T08:00:19;16.77;;;7.17;;
22378;SDS011;11357;49.990;7.370;2023-03-21T08:02:49;14.70;;;7.30;;
22378;SDS011;11357;49.990;7.370;2023-03-21T08:05:19;17.23;;;10.67;;
22378;SDS011;11357;49.990;7.370;2023-03-21T08:07:49;14.53;;;6.80;;
22378;SDS011;11357;49.990;7.370;2023-03-21T08:10:15;17.43;;;12.43;;
22378;SDS011;11357;49.990;7.370;2023-03-21T08:12:41;18.97;;;10.27;;
22378;SDS011;11357;49.990;7.370;2023-03-21T08:15:08;16.83;;;9.37;;
22378;SDS011;11357;49.990;7.370;2023-03-21T08:17:34;14.07;;;9.90;;
22378;SDS011;11357;49.990;7.370;2023-03-21T08:20:03;18.00;;;11.37;;
22378;SDS011;11357;49.990;7.370;2023-03-21T08:22:33;21.33;;;14.33;;
22378;SDS011;11357;49.990;7.370;2023-03-21T08:25:00;14.70;;;12.47;;
22378;SDS011;11357;49.990;7.370;2023-03-21T08:27:26;19.83;;;14.97;;
22378;SDS011;11357;49.990;7.370;2023-03-21T08:29:52;14.40;;;8.17;;
22378;SDS011;11357;49.990;7.370;2023-03-21T08:32:18;14.50;;;8.10;;
22378;SDS011;11357;49.990;7.370;2023-03-21T08:34:44;19.03;;;7.53;;
22378;SDS011;11357;49.990;7.370;2023-03-21T08:37:10;13.13;;;7.87;;
22378;SDS011;11357;49.990;7.370;2023-03-21T08:39:36;12.67;;;7.33;;
22378;SDS011;11357;49.990;7.370;2023-03-21T08:42:02;27.90;;;22.53;;
22378;SDS011;11357;49.990;7.370;2023-03-21T08:44:29;18.47;;;11.23;;
22378;SDS011;11357;49.990;7.370;2023-03-21T08:46:55;20.17;;;17.43;;
22378;SDS011;11357;49.990;7.370;2023-03-21T08:49:20;15.17;;;11.43;;
22378;SDS011;11357;49.990;7.370;2023-03-21T08:51:46;16.90;;;15.33;;
22378;SDS011;11357;49.990;7.370;2023-03-21T08:54:17;16.53;;;12.07;;
22378;SDS011;11357;49.990;7.370;2023-03-21T08:56:46;22.40;;;20.40;;
22378;SDS011;11357;49.990;7.370;2023-03-21T08:59:12;15.33;;;9.47;;
22378;SDS011;11357;49.990;7.370;2023-03-21T09:01:37;17.50;;;13.23;;
22378;SDS011;11357;49.990;7.370;2023-03-21T09:04:03;13.67;;;10.60;;
22378;SDS011;11357;49.990;7.370;2023-03-21T09:06:32;13.20;;;11.30;;
22378;SDS011;11357;49.990;7.370;2023-03-21T09:08:58;15.97;;;10.90;;
22378;SDS011;11357;49.990;7.370;2023-03-21T09:11:23;22.93;;;20.97;;
22378;SDS011;11357;49.990;7.370;2023-03-21T09:13:49;28.83;;;26.37;;
22378;SDS011;11357;49.990;7.370;2023-03-21T09:16:15;16.83;;;14.87;;
22378;SDS011;11357;49.990;7.370;2023-03-21T09:18:41;33.60;;;30.33;;
22378;SDS011;11357;49.990;7.370;2023-03-21T09:21:11;21.93;;;19.93;;
22378;SDS011;11357;49.990;7.370;2023-03-21T09:23:41;21.33;;;17.70;;
22378;SDS011;11357;49.990;7.370;2023-03-21T09:26:11;20.87;;;18.87;;
22378;SDS011;11357;49.990;7.370;2023-03-21T09:28:37;23.57;;;20.77;;
22378;SDS011;11357;49.990;7.370;2023-03-21T09:31:04;25.83;;;23.53;;
22378;SDS011;11357;49.990;7.370;2023-03-21T09:33:33;20.33;;;18.53;;
22378;SDS011;11357;49.990;7.370;2023-03-21T09:35:59;14.97;;;11.53;;
22378;SDS011;11357;49.990;7.370;2023-03-21T09:38:25;19.67;;;17.60;;
22378;SDS011;11357;49.990;7.370;2023-03-21T09:41:08;21.30;;;18.93;;
22378;SDS011;11357;49.990;7.370;2023-03-21T09:46:40;36.20;;;33.50;;
22378;SDS011;11357;49.990;7.370;2023-03-21T09:49:30;23.87;;;21.87;;
22378;SDS011;11357;49.990;7.370;2023-03-21T09:52:05;21.50;;;17.33;;
22378;SDS011;11357;49.990;7.370;2023-03-21T09:54:39;25.47;;;23.27;;
22378;SDS011;11357;49.990;7.370;2023-03-21T09:59:57;16.43;;;10.53;;
22378;SDS011;11357;49.990;7.370;2023-03-21T10:02:38;17.90;;;15.93;;
22378;SDS011;11357;49.990;7.370;2023-03-21T10:05:18;16.20;;;11.10;;
22378;SDS011;11357;49.990;7.370;2023-03-21T10:08:05;18.67;;;15.77;;
22378;SDS011;11357;49.990;7.370;2023-03-21T10:10:38;17.07;;;13.03;;
22378;SDS011;11357;49.990;7.370;2023-03-21T10:13:12;13.80;;;12.50;;
22378;SDS011;11357;49.990;7.370;2023-03-21T10:15:41;21.00;;;15.90;;
22378;SDS011;11357;49.990;7.370;2023-03-21T10:18:07;40.57;;;37.10;;
22378;SDS011;11357;49.990;7.370;2023-03-21T10:20:42;17.33;;;14.17;;
22378;SDS011;11357;49.990;7.370;2023-03-21T10:23:11;32.47;;;29.93;;
22378;SDS011;11357;49.990;7.370;2023-03-21T10:25:41;48.00;;;44.73;;
22378;SDS011;11357;49.990;7.370;2023-03-21T10:28:16;66.77;;;62.17;;
22378;SDS011;11357;49.990;7.370;2023-03-21T10:30:50;15.80;;;13.83;;
22378;SDS011;11357;49.990;7.370;2023-03-21T10:33:19;26.90;;;24.77;;
22378;SDS011;11357;49.990;7.370;2023-03-21T10:35:55;27.07;;;24.67;;
22378;SDS011;11357;49.990;7.370;2023-03-21T10:38:24;17.13;;;11.30;;
22378;SDS011;11357;49.990;7.370;2023-03-21T10:40:50;39.47;;;36.63;;
22378;SDS011;11357;49.990;7.370;2023-03-21T10:45:51;24.07;;;21.43;;
22378;SDS011;11357;49.990;7.370;2023-03-21T10:48:21;14.63;;;13.17;;
22378;SDS011;11357;49.990;7.370;2023-03-21T10:50:48;28.87;;;26.53;;
22378;SDS011;11357;49.990;7.370;2023-03-21T10:53:19;79.17;;;73.60;;
22378;SDS011;11357;49.990;7.370;2023-03-21T10:55:47;16.73;;;14.03;;
22378;SDS011;11357;49.990;7.370;2023-03-21T10:58:18;12.83;;;10.13;;
22378;SDS011;11357;49.990;7.370;2023-03-21T11:00:49;8.50;;;7.23;;
22378;SDS011;11357;49.990;7.370;2023-03-21T11:03:31;12.37;;;7.33;;
22378;SDS011;11357;49.990;7.370;2023-03-21T11:06:21;23.77;;;19.97;;
22378;SDS011;11357;49.990;7.370;2023-03-21T11:08:54;17.33;;;11.03;;
22378;SDS011;11357;49.990;7.370;2023-03-21T11:14:26;7.80;;;6.27;;
22378;SDS011;11357;49.990;7.370;2023-03-21T11:22:21;11.07;;;6.33;;
22378;SDS011;11357;49.990;7.370;2023-03-21T11:24:51;10.13;;;8.17;;
22378;SDS011;11357;49.990;7.370;2023-03-21T11:27:21;10.67;;;7.57;;
22378;SDS011;11357;49.990;7.370;2023-03-21T11:29:49;16.50;;;14.07;;
22378;SDS011;11357;49.990;7.370;2023-03-21T11:37:16;22.40;;;20.60;;
22378;SDS011;11357;49.990;7.370;2023-03-21T11:39:55;28.27;;;26.13;;
22378;SDS011;11357;49.990;7.370;2023-03-21T11:42:31;10.90;;;6.77;;
22378;SDS011;11357;49.990;7.370;2023-03-21T11:45:09;15.63;;;10.30;;
22378;SDS011;11357;49.990;7.370;2023-03-21T11:47:36;11.23;;;8.40;;
22378;SDS011;11357;49.990;7.370;2023-03-21T11:50:05;48.67;;;45.07;;
22378;SDS011;11357;49.990;7.370;2023-03-21T11:58:51;12.87;;;10.97;;
22378;SDS011;11357;49.990;7.370;2023-03-21T12:04:45;23.73;;;21.40;;
22378;SDS011;11357;49.990;7.370;2023-03-21T12:13:19;9.93;;;7.90;;
22378;SDS011;11357;49.990;7.370;2023-03-21T12:16:21;30.30;;;28.00;;
22378;SDS011;11357;49.990;7.370;2023-03-21T12:29:48;118.30;;;111.30;;
22378;SDS011;11357;49.990;7.370;2023-03-21T12:35:20;57.67;;;53.90;;
22378;SDS011;11357;49.990;7.370;2023-03-21T12:40:34;55.00;;;51.40;;
22378;SDS011;11357;49.990;7.370;2023-03-21T12:46:03;33.97;;;31.43;;
22378;SDS011;11357;49.990;7.370;2023-03-21T12:48:41;50.37;;;47.07;;
22378;SDS011;11357;49.990;7.370;2023-03-21T12:51:18;57.13;;;53.33;;
22378;SDS011;11357;49.990;7.370;2023-03-21T12:56:22;43.87;;;40.43;;
22378;SDS011;11357;49.990;7.370;2023-03-21T12:59:38;56.93;;;53.03;;
22378;SDS011;11357;49.990;7.370;2023-03-21T13:01:46;44.27;;;41.37;;
22378;SDS011;11357;49.990;7.370;2023-03-21T13:06:44;42.10;;;38.37;;
22378;SDS011;11357;49.990;7.370;2023-03-21T13:11:42;55.60;;;52.00;;
22378;SDS011;11357;49.990;7.370;2023-03-21T13:14:14;102.20;;;95.77;;
22378;SDS011;11357;49.990;7.370;2023-03-21T13:27:44;65.60;;;61.17;;
22378;SDS011;11357;49.990;7.370;2023-03-21T13:32:45;87.57;;;81.83;;
22378;SDS011;11357;49.990;7.370;2023-03-21T13:35:19;81.47;;;76.47;;
22378;SDS011;11357;49.990;7.370;2023-03-21T13:37:57;15.83;;;14.23;;
22378;SDS011;11357;49.990;7.370;2023-03-21T13:40:43;26.03;;;23.97;;
22378;SDS011;11357;49.990;7.370;2023-03-21T13:54:00;35.23;;;32.87;;
22378;SDS011;11357;49.990;7.370;2023-03-21T13:56:27;18.20;;;16.33;;
22378;SDS011;11357;49.990;7.370;2023-03-21T13:58:57;17.13;;;15.63;;
22378;SDS011;11357;49.990;7.370;2023-03-21T14:06:35;13.70;;;11.53;;
22378;SDS011;11357;49.990;7.370;2023-03-21T14:09:06;32.50;;;30.03;;
22378;SDS011;11357;49.990;7.370;2023-03-21T14:11:32;28.27;;;25.97;;
22378;SDS011;11357;49.990;7.370;2023-03-21T14:13:59;37.10;;;34.47;;
22378;SDS011;11357;49.990;7.370;2023-03-21T14:16:26;79.90;;;74.70;;
22378;SDS011;11357;49.990;7.370;2023-03-21T14:18:59;25.87;;;23.83;;
22378;SDS011;11357;49.990;7.370;2023-03-21T14:21:29;66.60;;;62.40;;
22378;SDS011;11357;49.990;7.370;2023-03-21T14:23:57;41.77;;;39.03;;
22378;SDS011;11357;49.990;7.370;2023-03-21T14:26:29;50.47;;;47.03;;
22378;SDS011;11357;49.990;7.370;2023-03-21T14:29:01;19.03;;;17.40;;
22378;SDS011;11357;49.990;7.370;2023-03-21T14:31:31;17.93;;;16.33;;
22378;SDS011;11357;49.990;7.370;2023-03-21T14:33:57;13.47;;;9.20;;
22378;SDS011;11357;49.990;7.370;2023-03-21T14:36:27;10.57;;;9.50;;
22378;SDS011;11357;49.990;7.370;2023-03-21T14:41:44;25.97;;;24.00;;
22378;SDS011;11357;49.990;7.370;2023-03-21T14:44:20;19.53;;;17.47;;
22378;SDS011;11357;49.990;7.370;2023-03-21T14:46:52;39.47;;;36.80;;
22378;SDS011;11357;49.990;7.370;2023-03-21T14:49:27;10.40;;;9.43;;
22378;SDS011;11357;49.990;7.370;2023-03-21T14:51:55;24.43;;;22.63;;
22378;SDS011;11357;49.990;7.370;2023-03-21T14:54:23;16.63;;;11.97;;
22378;SDS011;11357;49.990;7.370;2023-03-21T14:56:52;11.87;;;10.73;;
22378;SDS011;11357;49.990;7.370;2023-03-21T14:59:37;8.23;;;6.87;;
22378;SDS011;11357;49.990;7.370;2023-03-21T15:02:07;10.27;;;8.70;;
22378;SDS011;11357;49.990;7.370;2023-03-21T15:04:47;22.27;;;20.67;;
22378;SDS011;11357;49.990;7.370;2023-03-21T15:12:54;7.67;;;5.80;;
22378;SDS011;11357;49.990;7.370;2023-03-21T15:15:22;6.07;;;4.27;;
22378;SDS011;11357;49.990;7.370;2023-03-21T15:17:50;5.90;;;3.83;;
22378;SDS011;11357;49.990;7.370;2023-03-21T15:20:18;5.07;;;3.60;;
22378;SDS011;11357;49.990;7.370;2023-03-21T15:22:48;7.87;;;3.77;;
22378;SDS011;11357;49.990;7.370;2023-03-21T15:25:21;7.63;;;4.13;;
22378;SDS011;11357;49.990;7.370;2023-03-21T15:27:52;8.07;;;4.10;;
22378;SDS011;11357;49.990;7.370;2023-03-21T15:30:21;6.63;;;4.17;;
22378;SDS011;11357;49.990;7.370;2023-03-21T15:32:52;5.50;;;3.80;;
22378;SDS011;11357;49.990;7.370;2023-03-21T15:35:20;7.50;;;4.87;;
22378;SDS011;11357;49.990;7.370;2023-03-21T15:37:52;5.93;;;4.23;;
22378;SDS011;11357;49.990;7.370;2023-03-21T15:42:47;6.43;;;4.27;;
22378;SDS011;11357;49.990;7.370;2023-03-21T15:45:20;5.17;;;4.10;;
22378;SDS011;11357;49.990;7.370;2023-03-21T15:48:08;4.97;;;3.93;;
22378;SDS011;11357;49.990;7.370;2023-03-21T15:50:39;4.97;;;4.03;;
22378;SDS011;11357;49.990;7.370;2023-03-21T15:53:12;10.07;;;6.40;;
22378;SDS011;11357;49.990;7.370;2023-03-21T15:55:49;8.53;;;5.83;;
22378;SDS011;11357;49.990;7.370;2023-03-21T15:58:24;6.90;;;4.53;;
22378;SDS011;11357;49.990;7.370;2023-03-21T16:00:52;4.97;;;4.30;;
22378;SDS011;11357;49.990;7.370;2023-03-21T16:06:04;9.10;;;5.37;;
22378;SDS011;11357;49.990;7.370;2023-03-21T16:08:45;5.77;;;4.47;;
22378;SDS011;11357;49.990;7.370;2023-03-21T16:11:13;6.53;;;4.10;;
22378;SDS011;11357;49.990;7.370;2023-03-21T16:13:46;10.63;;;4.90;;
22378;SDS011;11357;49.990;7.370;2023-03-21T16:16:13;7.23;;;5.10;;
22378;SDS011;11357;49.990;7.370;2023-03-21T16:18:44;7.10;;;4.23;;
22378;SDS011;11357;49.990;7.370;2023-03-21T16:21:11;5.67;;;4.03;;
22378;SDS011;11357;49.990;7.370;2023-03-21T16:23:38;6.67;;;3.67;;
22378;SDS011;11357;49.990;7.370;2023-03-21T16:26:03;7.40;;;4.77;;
22378;SDS011;11357;49.990;7.370;2023-03-21T16:28:29;6.83;;;4.57;;
22378;SDS011;11357;49.990;7.370;2023-03-21T16:30:56;5.47;;;4.90;;
22378;SDS011;11357;49.990;7.370;2023-03-21T16:33:21;7.87;;;7.10;;
22378;SDS011;11357;49.990;7.370;2023-03-21T16:35:49;7.40;;;4.17;;
22378;SDS011;11357;49.990;7.370;2023-03-21T16:38:16;5.93;;;3.90;;
22378;SDS011;11357;49.990;7.370;2023-03-21T16:40:42;11.27;;;8.13;;
22378;SDS011;11357;49.990;7.370;2023-03-21T16:43:08;5.60;;;4.93;;
22378;SDS011;11357;49.990;7.370;2023-03-21T16:45:35;11.73;;;10.30;;
22378;SDS011;11357;49.990;7.370;2023-03-21T16:48:01;8.03;;;6.10;;
22378;SDS011;11357;49.990;7.370;2023-03-21T16:50:29;18.70;;;15.27;;
22378;SDS011;11357;49.990;7.370;2023-03-21T16:53:00;12.40;;;8.47;;
22378;SDS011;11357;49.990;7.370;2023-03-21T16:55:26;9.03;;;4.43;;
22378;SDS011;11357;49.990;7.370;2023-03-21T16:57:53;10.03;;;4.33;;
22378;SDS011;11357;49.990;7.370;2023-03-21T17:00:23;7.53;;;4.97;;
22378;SDS011;11357;49.990;7.370;2023-03-21T17:02:51;7.00;;;4.73;;